sensor_id;sensor_type;location;lat;lon;timestamp;P1;durP1;ratioP1;P2;durP2;ratioP2
27313;SDS011;14800;48.174;9.798;2023-04-12T00:01:38;3.88;;;1.48;;
27313;SDS011;14800;48.174;9.798;2023-04-12T00:04:04;2.75;;;1.60;;
27313;SDS011;14800;48.174;9.798;2023-04-12T00:06:30;3.33;;;1.35;;
27313;SDS011;14800;48.174;9.798;2023-04-12T00:08:59;4.47;;;1.60;;
27313;SDS011;14800;48.174;9.798;2023-04-12T00:11:25;4.55;;;1.85;;
27313;SDS011;14800;48.174;9.798;2023-04-12T00:13:52;3.60;;;1.50;;
27313;SDS011;14800;48.174;9.798;2023-04-12T00:16:18;3.90;;;1.50;;
27313;SDS011;14800;48.174;9.798;2023-04-12T00:18:44;4.45;;;1.58;;
27313;SDS011;14800;48.174;9.798;2023-04-12T00:21:10;3.85;;;1.73;;
27313;SDS011;14800;48.174;9.798;2023-04-12T00:23:36;3.08;;;1.90;;
27313;SDS011;14800;48.174;9.798;2023-04-12T00:26:04;5.03;;;2.00;;
27313;SDS011;14800;48.174;9.798;2023-04-12T00:28:30;5.03;;;2.00;;
27313;SDS011;14800;48.174;9.798;2023-04-12T00:30:56;3.92;;;1.90;;
27313;SDS011;14800;48.174;9.798;2023-04-12T00:33:21;3.38;;;1.83;;
27313;SDS011;14800;48.174;9.798;2023-04-12T00:35:47;3.00;;;1.65;;
27313;SDS011;14800;48.174;9.798;2023-04-12T00:38:13;2.78;;;1.80;;
27313;SDS011;14800;48.174;9.798;2023-04-12T00:40:40;4.47;;;1.85;;
27313;SDS011;14800;48.174;9.798;2023-04-12T00:43:06;3.67;;;2.00;;
27313;SDS011;14800;48.174;9.798;2023-04-12T00:45:33;2.35;;;1.70;;
27313;SDS011;14800;48.174;9.798;2023-04-12T00:47:59;2.95;;;1.92;;
27313;SDS011;14800;48.174;9.798;2023-04-12T00:50:25;4.10;;;2.05;;
27313;SDS011;14800;48.174;9.798;2023-04-12T00:52:51;3.25;;;1.70;;
27313;SDS011;14800;48.174;9.798;2023-04-12T00:55:17;3.13;;;1.83;;
27313;SDS011;14800;48.174;9.798;2023-04-12T00:57:43;4.15;;;2.00;;
27313;SDS011;14800;48.174;9.798;2023-04-12T01:00:09;4.32;;;2.10;;
27313;SDS011;14800;48.174;9.798;2023-04-12T01:02:36;3.80;;;2.00;;
27313;SDS011;14800;48.174;9.798;2023-04-12T01:05:03;3.50;;;2.10;;
27313;SDS011;14800;48.174;9.798;2023-04-12T01:13:03;3.55;;;2.13;;
27313;SDS011;14800;48.174;9.798;2023-04-12T01:15:36;4.18;;;2.10;;
27313;SDS011;14800;48.174;9.798;2023-04-12T01:18:12;3.65;;;1.92;;
27313;SDS011;14800;48.174;9.798;2023-04-12T01:20:46;2.10;;;1.80;;
27313;SDS011;14800;48.174;9.798;2023-04-12T01:26:09;4.35;;;2.28;;
27313;SDS011;14800;48.174;9.798;2023-04-12T01:28:56;2.95;;;1.90;;
27313;SDS011;14800;48.174;9.798;2023-04-12T01:31:25;3.25;;;1.98;;
27313;SDS011;14800;48.174;9.798;2023-04-12T01:33:52;3.17;;;1.90;;
27313;SDS011;14800;48.174;9.798;2023-04-12T01:36:19;4.13;;;1.90;;
27313;SDS011;14800;48.174;9.798;2023-04-12T01:38:46;3.25;;;2.00;;
27313;SDS011;14800;48.174;9.798;2023-04-12T01:41:13;2.10;;;1.88;;
27313;SDS011;14800;48.174;9.798;2023-04-12T01:43:40;2.58;;;1.60;;
27313;SDS011;14800;48.174;9.798;2023-04-12T01:46:10;3.17;;;1.48;;
27313;SDS011;14800;48.174;9.798;2023-04-12T01:48:50;2.50;;;1.60;;
27313;SDS011;14800;48.174;9.798;2023-04-12T01:51:24;1.50;;;1.40;;
27313;SDS011;14800;48.174;9.798;2023-04-12T01:54:12;1.58;;;1.48;;
27313;SDS011;14800;48.174;9.798;2023-04-12T01:56:42;1.40;;;1.30;;
27313;SDS011;14800;48.174;9.798;2023-04-12T01:59:11;2.03;;;1.55;;
27313;SDS011;14800;48.174;9.798;2023-04-12T02:01:39;1.58;;;1.23;;
27313;SDS011;14800;48.174;9.798;2023-04-12T02:04:05;1.40;;;1.27;;
27313;SDS011;14800;48.174;9.798;2023-04-12T02:06:33;1.67;;;1.30;;
27313;SDS011;14800;48.174;9.798;2023-04-12T02:09:00;1.92;;;1.40;;
27313;SDS011;14800;48.174;9.798;2023-04-12T02:11:27;1.50;;;1.20;;
27313;SDS011;14800;48.174;9.798;2023-04-12T02:13:53;2.13;;;1.30;;
27313;SDS011;14800;48.174;9.798;2023-04-12T02:16:18;1.73;;;1.30;;
27313;SDS011;14800;48.174;9.798;2023-04-12T02:18:45;3.05;;;1.50;;
27313;SDS011;14800;48.174;9.798;2023-04-12T02:21:11;1.70;;;1.02;;
27313;SDS011;14800;48.174;9.798;2023-04-12T02:23:37;1.65;;;1.40;;
27313;SDS011;14800;48.174;9.798;2023-04-12T02:26:02;1.30;;;1.20;;
27313;SDS011;14800;48.174;9.798;2023-04-12T02:28:28;1.60;;;1.20;;
27313;SDS011;14800;48.174;9.798;2023-04-12T02:30:54;1.75;;;1.15;;
27313;SDS011;14800;48.174;9.798;2023-04-12T02:33:19;1.58;;;1.00;;
27313;SDS011;14800;48.174;9.798;2023-04-12T02:35:52;1.52;;;1.10;;
27313;SDS011;14800;48.174;9.798;2023-04-12T02:38:18;1.63;;;1.10;;
27313;SDS011;14800;48.174;9.798;2023-04-12T02:40:43;1.30;;;0.90;;
27313;SDS011;14800;48.174;9.798;2023-04-12T02:43:09;1.15;;;1.05;;
27313;SDS011;14800;48.174;9.798;2023-04-12T02:45:35;1.52;;;1.10;;
27313;SDS011;14800;48.174;9.798;2023-04-12T02:48:00;2.05;;;1.15;;
27313;SDS011;14800;48.174;9.798;2023-04-12T02:50:27;1.55;;;1.20;;
27313;SDS011;14800;48.174;9.798;2023-04-12T02:52:53;3.03;;;1.35;;
27313;SDS011;14800;48.174;9.798;2023-04-12T02:55:18;1.80;;;1.05;;
27313;SDS011;14800;48.174;9.798;2023-04-12T02:57:44;1.92;;;1.20;;
27313;SDS011;14800;48.174;9.798;2023-04-12T03:00:10;3.33;;;1.13;;
27313;SDS011;14800;48.174;9.798;2023-04-12T03:02:36;1.45;;;1.00;;
27313;SDS011;14800;48.174;9.798;2023-04-12T03:05:02;1.13;;;1.02;;
27313;SDS011;14800;48.174;9.798;2023-04-12T03:07:28;1.17;;;1.08;;
27313;SDS011;14800;48.174;9.798;2023-04-12T03:09:54;1.33;;;1.05;;
27313;SDS011;14800;48.174;9.798;2023-04-12T03:12:20;1.85;;;1.10;;
27313;SDS011;14800;48.174;9.798;2023-04-12T03:14:46;1.13;;;1.10;;
27313;SDS011;14800;48.174;9.798;2023-04-12T03:17:12;1.35;;;1.15;;
27313;SDS011;14800;48.174;9.798;2023-04-12T03:19:37;1.50;;;1.00;;
27313;SDS011;14800;48.174;9.798;2023-04-12T03:22:03;1.58;;;1.05;;
27313;SDS011;14800;48.174;9.798;2023-04-12T03:24:30;2.13;;;1.20;;
27313;SDS011;14800;48.174;9.798;2023-04-12T03:26:59;2.20;;;1.27;;
27313;SDS011;14800;48.174;9.798;2023-04-12T03:29:26;2.72;;;1.25;;
27313;SDS011;14800;48.174;9.798;2023-04-12T03:31:52;1.10;;;0.98;;
27313;SDS011;14800;48.174;9.798;2023-04-12T03:34:17;0.93;;;0.93;;
27313;SDS011;14800;48.174;9.798;2023-04-12T03:36:43;2.78;;;0.93;;
27313;SDS011;14800;48.174;9.798;2023-04-12T03:39:09;1.05;;;0.98;;
27313;SDS011;14800;48.174;9.798;2023-04-12T03:41:34;1.27;;;1.00;;
27313;SDS011;14800;48.174;9.798;2023-04-12T03:44:00;2.28;;;0.90;;
27313;SDS011;14800;48.174;9.798;2023-04-12T03:46:25;1.27;;;1.00;;
27313;SDS011;14800;48.174;9.798;2023-04-12T03:48:51;0.95;;;0.85;;
27313;SDS011;14800;48.174;9.798;2023-04-12T03:51:17;1.02;;;0.90;;
27313;SDS011;14800;48.174;9.798;2023-04-12T03:53:46;1.58;;;1.05;;
27313;SDS011;14800;48.174;9.798;2023-04-12T03:56:11;1.35;;;0.68;;
27313;SDS011;14800;48.174;9.798;2023-04-12T03:58:37;1.90;;;0.88;;
27313;SDS011;14800;48.174;9.798;2023-04-12T04:01:03;1.40;;;0.93;;
27313;SDS011;14800;48.174;9.798;2023-04-12T04:03:33;1.40;;;1.08;;
27313;SDS011;14800;48.174;9.798;2023-04-12T04:06:02;2.53;;;0.80;;
27313;SDS011;14800;48.174;9.798;2023-04-12T04:08:28;2.83;;;0.80;;
27313;SDS011;14800;48.174;9.798;2023-04-12T04:10:56;1.60;;;1.00;;
27313;SDS011;14800;48.174;9.798;2023-04-12T04:13:22;1.10;;;0.80;;
27313;SDS011;14800;48.174;9.798;2023-04-12T04:15:49;0.88;;;0.80;;
27313;SDS011;14800;48.174;9.798;2023-04-12T04:18:16;0.90;;;0.73;;
27313;SDS011;14800;48.174;9.798;2023-04-12T04:20:42;1.70;;;1.17;;
27313;SDS011;14800;48.174;9.798;2023-04-12T04:23:07;1.17;;;1.08;;
27313;SDS011;14800;48.174;9.798;2023-04-12T04:25:36;0.75;;;0.75;;
27313;SDS011;14800;48.174;9.798;2023-04-12T04:28:03;2.35;;;1.00;;
27313;SDS011;14800;48.174;9.798;2023-04-12T04:30:31;1.30;;;1.00;;
27313;SDS011;14800;48.174;9.798;2023-04-12T04:33:03;1.13;;;0.88;;
27313;SDS011;14800;48.174;9.798;2023-04-12T04:35:29;0.80;;;0.80;;
27313;SDS011;14800;48.174;9.798;2023-04-12T04:37:55;1.13;;;1.00;;
27313;SDS011;14800;48.174;9.798;2023-04-12T04:40:21;1.10;;;1.00;;
27313;SDS011;14800;48.174;9.798;2023-04-12T04:42:48;1.00;;;0.80;;
27313;SDS011;14800;48.174;9.798;2023-04-12T04:45:21;2.42;;;1.10;;
27313;SDS011;14800;48.174;9.798;2023-04-12T04:47:54;1.77;;;1.10;;
27313;SDS011;14800;48.174;9.798;2023-04-12T04:50:20;0.95;;;0.82;;
27313;SDS011;14800;48.174;9.798;2023-04-12T04:52:47;1.13;;;1.02;;
27313;SDS011;14800;48.174;9.798;2023-04-12T04:55:15;1.20;;;0.80;;
27313;SDS011;14800;48.174;9.798;2023-04-12T04:57:42;1.95;;;1.00;;
27313;SDS011;14800;48.174;9.798;2023-04-12T05:00:08;1.10;;;0.88;;
27313;SDS011;14800;48.174;9.798;2023-04-12T05:02:36;1.10;;;1.00;;
27313;SDS011;14800;48.174;9.798;2023-04-12T05:05:06;1.77;;;1.30;;
27313;SDS011;14800;48.174;9.798;2023-04-12T05:07:39;2.10;;;1.40;;
27313;SDS011;14800;48.174;9.798;2023-04-12T05:10:07;2.13;;;1.35;;
27313;SDS011;14800;48.174;9.798;2023-04-12T05:12:33;2.20;;;1.33;;
27313;SDS011;14800;48.174;9.798;2023-04-12T05:15:00;2.85;;;1.55;;
27313;SDS011;14800;48.174;9.798;2023-04-12T05:17:26;1.88;;;1.42;;
27313;SDS011;14800;48.174;9.798;2023-04-12T05:19:52;3.60;;;1.40;;
27313;SDS011;14800;48.174;9.798;2023-04-12T05:22:17;2.55;;;1.48;;
27313;SDS011;14800;48.174;9.798;2023-04-12T05:24:46;3.20;;;1.42;;
27313;SDS011;14800;48.174;9.798;2023-04-12T05:27:12;3.00;;;1.63;;
27313;SDS011;14800;48.174;9.798;2023-04-12T05:29:40;2.97;;;1.70;;
27313;SDS011;14800;48.174;9.798;2023-04-12T05:32:06;1.40;;;1.25;;
27313;SDS011;14800;48.174;9.798;2023-04-12T05:34:32;2.15;;;1.45;;
27313;SDS011;14800;48.174;9.798;2023-04-12T05:36:57;2.28;;;1.50;;
27313;SDS011;14800;48.174;9.798;2023-04-12T05:39:24;5.47;;;1.70;;
27313;SDS011;14800;48.174;9.798;2023-04-12T05:41:51;1.85;;;1.60;;
27313;SDS011;14800;48.174;9.798;2023-04-12T05:44:17;2.25;;;1.80;;
27313;SDS011;14800;48.174;9.798;2023-04-12T05:46:42;3.53;;;1.70;;
27313;SDS011;14800;48.174;9.798;2023-04-12T05:49:08;1.48;;;1.38;;
27313;SDS011;14800;48.174;9.798;2023-04-12T05:51:34;2.17;;;1.38;;
27313;SDS011;14800;48.174;9.798;2023-04-12T05:53:59;2.40;;;1.50;;
27313;SDS011;14800;48.174;9.798;2023-04-12T05:56:25;2.38;;;1.60;;
27313;SDS011;14800;48.174;9.798;2023-04-12T05:58:51;1.92;;;1.38;;
27313;SDS011;14800;48.174;9.798;2023-04-12T06:01:16;1.35;;;1.23;;
27313;SDS011;14800;48.174;9.798;2023-04-12T06:03:44;2.50;;;1.50;;
27313;SDS011;14800;48.174;9.798;2023-04-12T06:06:10;4.13;;;1.48;;
27313;SDS011;14800;48.174;9.798;2023-04-12T06:08:36;2.08;;;1.70;;
27313;SDS011;14800;48.174;9.798;2023-04-12T06:11:03;1.58;;;1.42;;
27313;SDS011;14800;48.174;9.798;2023-04-12T06:13:29;2.53;;;1.35;;
27313;SDS011;14800;48.174;9.798;2023-04-12T06:15:54;4.18;;;2.10;;
27313;SDS011;14800;48.174;9.798;2023-04-12T06:18:20;2.60;;;1.40;;
27313;SDS011;14800;48.174;9.798;2023-04-12T06:20:46;2.08;;;1.50;;
27313;SDS011;14800;48.174;9.798;2023-04-12T06:23:11;3.63;;;2.00;;
27313;SDS011;14800;48.174;9.798;2023-04-12T06:25:37;2.42;;;1.80;;
27313;SDS011;14800;48.174;9.798;2023-04-12T06:28:02;2.75;;;1.90;;
27313;SDS011;14800;48.174;9.798;2023-04-12T06:30:28;2.45;;;1.80;;
27313;SDS011;14800;48.174;9.798;2023-04-12T06:32:54;2.40;;;1.80;;
27313;SDS011;14800;48.174;9.798;2023-04-12T06:35:20;5.15;;;4.07;;
27313;SDS011;14800;48.174;9.798;2023-04-12T06:37:46;3.30;;;2.45;;
27313;SDS011;14800;48.174;9.798;2023-04-12T06:40:12;2.97;;;1.75;;
27313;SDS011;14800;48.174;9.798;2023-04-12T06:42:37;2.28;;;1.58;;
27313;SDS011;14800;48.174;9.798;2023-04-12T06:45:03;2.67;;;1.45;;
27313;SDS011;14800;48.174;9.798;2023-04-12T06:47:30;1.70;;;1.17;;
27313;SDS011;14800;48.174;9.798;2023-04-12T06:49:56;1.33;;;1.13;;
27313;SDS011;14800;48.174;9.798;2023-04-12T06:52:25;1.52;;;1.05;;
27313;SDS011;14800;48.174;9.798;2023-04-12T06:54:51;1.30;;;1.20;;
27313;SDS011;14800;48.174;9.798;2023-04-12T06:57:17;1.42;;;1.02;;
27313;SDS011;14800;48.174;9.798;2023-04-12T06:59:42;1.45;;;1.20;;
27313;SDS011;14800;48.174;9.798;2023-04-12T07:02:08;1.75;;;1.30;;
27313;SDS011;14800;48.174;9.798;2023-04-12T07:04:34;1.65;;;1.02;;
27313;SDS011;14800;48.174;9.798;2023-04-12T07:07:00;1.95;;;1.40;;
27313;SDS011;14800;48.174;9.798;2023-04-12T07:09:25;1.77;;;1.20;;
27313;SDS011;14800;48.174;9.798;2023-04-12T07:11:51;2.33;;;1.60;;
27313;SDS011;14800;48.174;9.798;2023-04-12T07:14:17;2.40;;;1.45;;
27313;SDS011;14800;48.174;9.798;2023-04-12T07:16:42;1.45;;;1.33;;
27313;SDS011;14800;48.174;9.798;2023-04-12T07:19:08;1.77;;;1.30;;
27313;SDS011;14800;48.174;9.798;2023-04-12T07:21:34;1.77;;;1.30;;
27313;SDS011;14800;48.174;9.798;2023-04-12T07:24:00;1.45;;;1.35;;
27313;SDS011;14800;48.174;9.798;2023-04-12T07:26:25;1.95;;;1.30;;
27313;SDS011;14800;48.174;9.798;2023-04-12T07:28:51;1.52;;;1.42;;
27313;SDS011;14800;48.174;9.798;2023-04-12T07:31:17;1.67;;;1.10;;
27313;SDS011;14800;48.174;9.798;2023-04-12T07:33:42;1.67;;;1.45;;
27313;SDS011;14800;48.174;9.798;2023-04-12T07:36:08;1.90;;;1.50;;
27313;SDS011;14800;48.174;9.798;2023-04-12T07:38:34;2.13;;;1.33;;
27313;SDS011;14800;48.174;9.798;2023-04-12T07:41:00;1.88;;;1.40;;
27313;SDS011;14800;48.174;9.798;2023-04-12T07:43:26;4.25;;;1.60;;
27313;SDS011;14800;48.174;9.798;2023-04-12T07:45:53;1.65;;;1.55;;
27313;SDS011;14800;48.174;9.798;2023-04-12T07:48:19;10.60;;;5.75;;
27313;SDS011;14800;48.174;9.798;2023-04-12T07:50:45;7.63;;;5.25;;
27313;SDS011;14800;48.174;9.798;2023-04-12T07:53:21;3.50;;;2.70;;
27313;SDS011;14800;48.174;9.798;2023-04-12T07:55:48;3.83;;;1.85;;
27313;SDS011;14800;48.174;9.798;2023-04-12T07:58:14;1.77;;;1.42;;
27313;SDS011;14800;48.174;9.798;2023-04-12T08:00:40;1.67;;;1.10;;
27313;SDS011;14800;48.174;9.798;2023-04-12T08:03:06;1.20;;;1.08;;
27313;SDS011;14800;48.174;9.798;2023-04-12T08:05:32;3.63;;;1.52;;
27313;SDS011;14800;48.174;9.798;2023-04-12T08:07:58;2.05;;;1.58;;
27313;SDS011;14800;48.174;9.798;2023-04-12T08:10:24;5.88;;;1.88;;
27313;SDS011;14800;48.174;9.798;2023-04-12T08:12:49;3.08;;;1.55;;
27313;SDS011;14800;48.174;9.798;2023-04-12T08:15:15;1.83;;;1.40;;
27313;SDS011;14800;48.174;9.798;2023-04-12T08:17:40;1.55;;;1.25;;
27313;SDS011;14800;48.174;9.798;2023-04-12T08:20:07;4.85;;;1.40;;
27313;SDS011;14800;48.174;9.798;2023-04-12T08:22:33;1.77;;;1.42;;
27313;SDS011;14800;48.174;9.798;2023-04-12T08:24:59;1.45;;;1.10;;
27313;SDS011;14800;48.174;9.798;2023-04-12T08:27:26;1.85;;;1.40;;
27313;SDS011;14800;48.174;9.798;2023-04-12T08:29:53;2.25;;;1.33;;
27313;SDS011;14800;48.174;9.798;2023-04-12T08:32:19;3.42;;;1.10;;
27313;SDS011;14800;48.174;9.798;2023-04-12T08:34:45;1.67;;;1.10;;
27313;SDS011;14800;48.174;9.798;2023-04-12T08:37:11;2.13;;;1.20;;
27313;SDS011;14800;48.174;9.798;2023-04-12T08:39:36;1.20;;;1.10;;
27313;SDS011;14800;48.174;9.798;2023-04-12T08:42:03;1.98;;;1.30;;
27313;SDS011;14800;48.174;9.798;2023-04-12T08:44:36;1.52;;;1.20;;
27313;SDS011;14800;48.174;9.798;2023-04-12T08:47:03;2.58;;;1.00;;
27313;SDS011;14800;48.174;9.798;2023-04-12T08:49:30;1.63;;;1.10;;
27313;SDS011;14800;48.174;9.798;2023-04-12T08:52:02;1.20;;;1.10;;
27313;SDS011;14800;48.174;9.798;2023-04-12T08:54:32;2.08;;;0.80;;
27313;SDS011;14800;48.174;9.798;2023-04-12T08:56:59;1.38;;;1.02;;
27313;SDS011;14800;48.174;9.798;2023-04-12T08:59:26;3.72;;;1.08;;
27313;SDS011;14800;48.174;9.798;2023-04-12T09:01:53;2.70;;;1.17;;
27313;SDS011;14800;48.174;9.798;2023-04-12T09:04:20;1.52;;;1.10;;
27313;SDS011;14800;48.174;9.798;2023-04-12T09:06:46;1.33;;;1.20;;
27313;SDS011;14800;48.174;9.798;2023-04-12T09:09:11;2.00;;;1.20;;
27313;SDS011;14800;48.174;9.798;2023-04-12T09:11:37;2.55;;;1.23;;
27313;SDS011;14800;48.174;9.798;2023-04-12T09:14:02;1.75;;;1.33;;
27313;SDS011;14800;48.174;9.798;2023-04-12T09:16:35;1.20;;;1.10;;
27313;SDS011;14800;48.174;9.798;2023-04-12T09:19:05;1.35;;;1.25;;
27313;SDS011;14800;48.174;9.798;2023-04-12T09:21:32;1.13;;;1.02;;
27313;SDS011;14800;48.174;9.798;2023-04-12T09:24:07;1.52;;;1.20;;
27313;SDS011;14800;48.174;9.798;2023-04-12T09:26:34;1.10;;;1.00;;
27313;SDS011;14800;48.174;9.798;2023-04-12T09:29:01;1.10;;;1.00;;
27313;SDS011;14800;48.174;9.798;2023-04-12T09:31:27;1.63;;;1.00;;
27313;SDS011;14800;48.174;9.798;2023-04-12T09:33:53;1.67;;;0.90;;
27313;SDS011;14800;48.174;9.798;2023-04-12T09:36:39;0.93;;;0.90;;
27313;SDS011;14800;48.174;9.798;2023-04-12T09:39:05;1.20;;;1.10;;
27313;SDS011;14800;48.174;9.798;2023-04-12T09:41:32;1.10;;;1.00;;
27313;SDS011;14800;48.174;9.798;2023-04-12T09:43:58;0.98;;;0.98;;
27313;SDS011;14800;48.174;9.798;2023-04-12T09:46:24;1.20;;;1.10;;
27313;SDS011;14800;48.174;9.798;2023-04-12T09:48:50;1.60;;;0.98;;
27313;SDS011;14800;48.174;9.798;2023-04-12T09:51:30;1.80;;;1.20;;
27313;SDS011;14800;48.174;9.798;2023-04-12T09:56:27;1.95;;;1.15;;
27313;SDS011;14800;48.174;9.798;2023-04-12T09:59:01;3.47;;;0.88;;
27313;SDS011;14800;48.174;9.798;2023-04-12T10:01:28;4.65;;;1.50;;
27313;SDS011;14800;48.174;9.798;2023-04-12T10:04:02;2.65;;;1.95;;
27313;SDS011;14800;48.174;9.798;2023-04-12T10:06:32;1.90;;;1.30;;
27313;SDS011;14800;48.174;9.798;2023-04-12T10:08:59;1.23;;;1.10;;
27313;SDS011;14800;48.174;9.798;2023-04-12T10:11:28;1.73;;;1.00;;
27313;SDS011;14800;48.174;9.798;2023-04-12T10:13:55;1.73;;;1.20;;
27313;SDS011;14800;48.174;9.798;2023-04-12T10:16:21;1.90;;;1.23;;
27313;SDS011;14800;48.174;9.798;2023-04-12T10:18:46;1.63;;;1.20;;
27313;SDS011;14800;48.174;9.798;2023-04-12T10:21:13;1.08;;;0.90;;
27313;SDS011;14800;48.174;9.798;2023-04-12T10:23:42;2.63;;;1.20;;
27313;SDS011;14800;48.174;9.798;2023-04-12T10:26:09;1.75;;;1.20;;
27313;SDS011;14800;48.174;9.798;2023-04-12T10:28:35;2.78;;;1.08;;
27313;SDS011;14800;48.174;9.798;2023-04-12T10:31:13;1.40;;;1.20;;
27313;SDS011;14800;48.174;9.798;2023-04-12T10:33:56;1.25;;;1.15;;
27313;SDS011;14800;48.174;9.798;2023-04-12T10:44:47;1.65;;;1.10;;
27313;SDS011;14800;48.174;9.798;2023-04-12T10:50:21;1.65;;;1.08;;
27313;SDS011;14800;48.174;9.798;2023-04-12T10:55:42;1.67;;;0.82;;
27313;SDS011;14800;48.174;9.798;2023-04-12T10:58:08;1.02;;;0.82;;
27313;SDS011;14800;48.174;9.798;2023-04-12T11:03:22;1.40;;;0.85;;
27313;SDS011;14800;48.174;9.798;2023-04-12T11:06:03;1.30;;;0.77;;
27313;SDS011;14800;48.174;9.798;2023-04-12T11:08:30;1.67;;;1.00;;
27313;SDS011;14800;48.174;9.798;2023-04-12T11:11:03;1.27;;;1.05;;
27313;SDS011;14800;48.174;9.798;2023-04-12T11:13:37;1.77;;;1.00;;
27313;SDS011;14800;48.174;9.798;2023-04-12T11:16:04;2.67;;;1.10;;
27313;SDS011;14800;48.174;9.798;2023-04-12T11:18:32;1.10;;;0.85;;
27313;SDS011;14800;48.174;9.798;2023-04-12T11:20:59;1.63;;;0.90;;
27313;SDS011;14800;48.174;9.798;2023-04-12T11:23:26;2.42;;;0.98;;
27313;SDS011;14800;48.174;9.798;2023-04-12T11:25:52;1.92;;;1.00;;
27313;SDS011;14800;48.174;9.798;2023-04-12T11:28:18;1.50;;;0.88;;
27313;SDS011;14800;48.174;9.798;2023-04-12T11:31:02;2.88;;;1.10;;
27313;SDS011;14800;48.174;9.798;2023-04-12T11:33:34;3.38;;;1.20;;
27313;SDS011;14800;48.174;9.798;2023-04-12T11:36:02;2.17;;;0.98;;
27313;SDS011;14800;48.174;9.798;2023-04-12T11:38:33;1.20;;;1.10;;
27313;SDS011;14800;48.174;9.798;2023-04-12T11:40:59;2.47;;;1.30;;
27313;SDS011;14800;48.174;9.798;2023-04-12T11:43:25;4.10;;;1.23;;
27313;SDS011;14800;48.174;9.798;2023-04-12T11:45:57;1.58;;;1.10;;
27313;SDS011;14800;48.174;9.798;2023-04-12T11:48:27;2.85;;;1.10;;
27313;SDS011;14800;48.174;9.798;2023-04-12T11:50:53;2.25;;;1.10;;
27313;SDS011;14800;48.174;9.798;2023-04-12T11:53:25;5.32;;;1.30;;
27313;SDS011;14800;48.174;9.798;2023-04-12T11:55:56;1.77;;;1.05;;
27313;SDS011;14800;48.174;9.798;2023-04-12T11:58:27;2.72;;;1.40;;
27313;SDS011;14800;48.174;9.798;2023-04-12T12:00:53;1.48;;;1.10;;
27313;SDS011;14800;48.174;9.798;2023-04-12T12:03:21;1.73;;;0.95;;
27313;SDS011;14800;48.174;9.798;2023-04-12T12:05:47;2.13;;;1.30;;
27313;SDS011;14800;48.174;9.798;2023-04-12T12:08:13;1.67;;;1.20;;
27313;SDS011;14800;48.174;9.798;2023-04-12T12:10:39;1.52;;;1.25;;
27313;SDS011;14800;48.174;9.798;2023-04-12T12:13:13;1.50;;;1.05;;
27313;SDS011;14800;48.174;9.798;2023-04-12T12:18:11;2.30;;;1.00;;
27313;SDS011;14800;48.174;9.798;2023-04-12T12:20:40;4.57;;;1.00;;
27313;SDS011;14800;48.174;9.798;2023-04-12T12:23:11;2.55;;;1.13;;
27313;SDS011;14800;48.174;9.798;2023-04-12T12:25:37;1.20;;;1.08;;
27313;SDS011;14800;48.174;9.798;2023-04-12T12:28:02;1.30;;;1.20;;
27313;SDS011;14800;48.174;9.798;2023-04-12T12:30:29;1.30;;;0.90;;
27313;SDS011;14800;48.174;9.798;2023-04-12T12:32:55;2.10;;;0.80;;
27313;SDS011;14800;48.174;9.798;2023-04-12T12:35:21;1.42;;;0.80;;
27313;SDS011;14800;48.174;9.798;2023-04-12T12:37:47;1.05;;;0.85;;
27313;SDS011;14800;48.174;9.798;2023-04-12T12:40:15;1.48;;;0.63;;
27313;SDS011;14800;48.174;9.798;2023-04-12T12:42:49;0.80;;;0.50;;
27313;SDS011;14800;48.174;9.798;2023-04-12T12:45:21;1.38;;;0.40;;
27313;SDS011;14800;48.174;9.798;2023-04-12T12:47:52;0.77;;;0.47;;
27313;SDS011;14800;48.174;9.798;2023-04-12T12:50:21;0.77;;;0.45;;
27313;SDS011;14800;48.174;9.798;2023-04-12T12:52:48;0.50;;;0.50;;
27313;SDS011;14800;48.174;9.798;2023-04-12T12:55:14;2.95;;;0.70;;
27313;SDS011;14800;48.174;9.798;2023-04-12T12:57:41;1.88;;;0.40;;
27313;SDS011;14800;48.174;9.798;2023-04-12T13:00:08;3.92;;;0.47;;
27313;SDS011;14800;48.174;9.798;2023-04-12T13:02:35;1.73;;;0.40;;
27313;SDS011;14800;48.174;9.798;2023-04-12T13:05:02;0.65;;;0.50;;
27313;SDS011;14800;48.174;9.798;2023-04-12T13:07:28;2.15;;;0.40;;
27313;SDS011;14800;48.174;9.798;2023-04-12T13:09:54;0.75;;;0.30;;
27313;SDS011;14800;48.174;9.798;2023-04-12T13:12:20;0.75;;;0.40;;
27313;SDS011;14800;48.174;9.798;2023-04-12T13:14:46;0.70;;;0.40;;
27313;SDS011;14800;48.174;9.798;2023-04-12T13:17:12;1.67;;;0.50;;
27313;SDS011;14800;48.174;9.798;2023-04-12T13:19:38;1.20;;;0.40;;
27313;SDS011;14800;48.174;9.798;2023-04-12T13:22:04;1.08;;;0.40;;
27313;SDS011;14800;48.174;9.798;2023-04-12T13:24:31;1.23;;;0.50;;
27313;SDS011;14800;48.174;9.798;2023-04-12T13:26:56;1.45;;;0.47;;
27313;SDS011;14800;48.174;9.798;2023-04-12T13:29:22;1.23;;;0.20;;
27313;SDS011;14800;48.174;9.798;2023-04-12T13:31:48;0.50;;;0.40;;
27313;SDS011;14800;48.174;9.798;2023-04-12T13:34:14;1.38;;;0.50;;
27313;SDS011;14800;48.174;9.798;2023-04-12T13:36:39;1.60;;;0.30;;
27313;SDS011;14800;48.174;9.798;2023-04-12T13:39:05;1.15;;;0.40;;
27313;SDS011;14800;48.174;9.798;2023-04-12T13:41:31;2.35;;;0.68;;
27313;SDS011;14800;48.174;9.798;2023-04-12T13:43:58;0.32;;;0.20;;
27313;SDS011;14800;48.174;9.798;2023-04-12T13:46:24;0.40;;;0.30;;
27313;SDS011;14800;48.174;9.798;2023-04-12T13:48:49;1.13;;;0.32;;
27313;SDS011;14800;48.174;9.798;2023-04-12T13:51:15;0.82;;;0.40;;
27313;SDS011;14800;48.174;9.798;2023-04-12T13:53:41;1.00;;;0.40;;
27313;SDS011;14800;48.174;9.798;2023-04-12T13:56:07;1.10;;;0.40;;
27313;SDS011;14800;48.174;9.798;2023-04-12T13:58:34;1.55;;;0.40;;
27313;SDS011;14800;48.174;9.798;2023-04-12T14:01:00;0.77;;;0.40;;
27313;SDS011;14800;48.174;9.798;2023-04-12T14:03:26;0.90;;;0.40;;
27313;SDS011;14800;48.174;9.798;2023-04-12T14:05:51;0.85;;;0.30;;
27313;SDS011;14800;48.174;9.798;2023-04-12T14:08:17;0.75;;;0.20;;
27313;SDS011;14800;48.174;9.798;2023-04-12T14:10:42;0.60;;;0.30;;
27313;SDS011;14800;48.174;9.798;2023-04-12T14:13:08;0.75;;;0.30;;
27313;SDS011;14800;48.174;9.798;2023-04-12T14:15:34;1.48;;;0.40;;
27313;SDS011;14800;48.174;9.798;2023-04-12T14:17:59;0.90;;;0.30;;
27313;SDS011;14800;48.174;9.798;2023-04-12T14:20:25;0.63;;;0.32;;
27313;SDS011;14800;48.174;9.798;2023-04-12T14:22:50;1.33;;;0.60;;
27313;SDS011;14800;48.174;9.798;2023-04-12T14:25:16;0.50;;;0.40;;
27313;SDS011;14800;48.174;9.798;2023-04-12T14:27:42;1.23;;;0.40;;
27313;SDS011;14800;48.174;9.798;2023-04-12T14:30:08;0.93;;;0.40;;
27313;SDS011;14800;48.174;9.798;2023-04-12T14:32:34;1.33;;;0.80;;
27313;SDS011;14800;48.174;9.798;2023-04-12T14:35:00;1.92;;;1.42;;
27313;SDS011;14800;48.174;9.798;2023-04-12T14:37:26;4.78;;;3.03;;
27313;SDS011;14800;48.174;9.798;2023-04-12T14:39:52;8.35;;;3.22;;
27313;SDS011;14800;48.174;9.798;2023-04-12T14:42:18;11.48;;;3.53;;
27313;SDS011;14800;48.174;9.798;2023-04-12T14:44:43;10.68;;;6.00;;
27313;SDS011;14800;48.174;9.798;2023-04-12T14:47:09;3.50;;;2.63;;
27313;SDS011;14800;48.174;9.798;2023-04-12T14:49:35;6.35;;;4.50;;
27313;SDS011;14800;48.174;9.798;2023-04-12T14:52:01;2.60;;;1.83;;
27313;SDS011;14800;48.174;9.798;2023-04-12T14:54:26;1.52;;;0.70;;
27313;SDS011;14800;48.174;9.798;2023-04-12T14:56:52;1.05;;;0.70;;
27313;SDS011;14800;48.174;9.798;2023-04-12T14:59:17;1.02;;;0.50;;
27313;SDS011;14800;48.174;9.798;2023-04-12T15:01:43;1.00;;;0.55;;
27313;SDS011;14800;48.174;9.798;2023-04-12T15:04:08;1.20;;;0.50;;
27313;SDS011;14800;48.174;9.798;2023-04-12T15:06:34;1.15;;;0.60;;
27313;SDS011;14800;48.174;9.798;2023-04-12T15:09:06;0.47;;;0.47;;
27313;SDS011;14800;48.174;9.798;2023-04-12T15:11:32;0.88;;;0.70;;
27313;SDS011;14800;48.174;9.798;2023-04-12T15:13:59;0.90;;;0.57;;
27313;SDS011;14800;48.174;9.798;2023-04-12T15:16:29;0.63;;;0.45;;
27313;SDS011;14800;48.174;9.798;2023-04-12T15:18:54;1.23;;;0.52;;